2MeteoStar Phoenix Sky Harbor International Airport FORECAST
Forecast For: Phoenix, Arizona
Partly Cloudy
 
Currently: Phoenix Sky Harbor International Airport 3:51 GMT
Weather:Partly Cloudy Humidity:33%
Temperature:28 ° C Wind:E 13 kph
Dew Point:11 ° C Pressure:1011 mb
Feels Like:27 ° C Visibility:16 km
Print Legend
24 Hour Weather Trace
Regional Observations
Daily Climate Plot
Monthly Climate Plot

Regional Radar Image
National Radar Image
Regional Satellite Image
National Satellite Image
Short Range Forecast Trace
Long Range Forecast Trace
NWS Forecast Discussion
16 Day Forecast
Radar For: Phoenix,AZ 10/21/2018 04:05 GMT
CLICK FOR LOOP




METAR:KPHX 210351Z 08007KT 10SM SCT100 28/11 A2989 RMK AO2 SLP105 T02780106 =
TAF:

TAFPHX
TAF AMD
KPHX 210249Z 2103/2206 09012KT P6SM SCT090 SCT250
FM210600 09011KT P6SM SCT080 SCT250 WS020/12040KT
FM211500 10012G20KT P6SM VCSH BKN080 BKN150
FM212200 10013KT P6SM SCT070 BKN250 =

NWS Forecast for:
Greater Phoenix Area


Visit the MeteoStar Home Page